Details From LQTZ - TUZLA
To LDSP - SPLIT
Flight Number -
Tags generated
Created
Modified
Stats Distance 119 nm / 220 km
Max Altitude 14,700 ft / 4,481 m
Waypoints 3
Social Downloads 0
Likes 0
Share VATSIM

Download

Looking for another format? Having issues loading an existing format? Contact us
Advertisement - Login to hide

Notes

Basic altitude profile: - Ascent Rate: 150ft/min - Ascent Speed: 250kts - Cruise Altitude: 150ft - Cruise Speed: 340kts - Descent Rate: 1500ft/min - Descent Speed: 250kts Options: - Use NATs: yes - Use PACOTS: yes - Use low airways: yes - Use high airways: yes

Route

LQTZ SOLGU LDSP

ID Type Via Altitude Latitude Longitude Leg Dist Tot Dist Heading (true) Name
O LQTZ APT - 0 ft / 0 m 44.45867˚ 18.72483˚ - 0 nm - TUZLA
SOLGU FIX - 14,700 ft / 4,481 m 44.11667˚ 17.66667˚ 49 nm 49 nm 246° / 245° -
O LDSP APT - 0 ft / 0 m 43.53903˚ 16.29811˚ 68 nm 118 nm 240° / 239° SPLIT

Altitude Profile

Advertisement - Login to hide

LQTZ

Details ICAO LQTZ
Name TUZLA
Region Bosnia and Herzegovinia
Timezone Europe/Sarajevo (UTC+2.0)
Stats Elevation 784 ft / 239 m (AMSL)
Location 44.458666° 18.724833°
Runways 1
Magnetic Variation 4.400° E

METAR

LQTZ 271530Z 08009KT 9999 FEW035 27/14 Q1018

Decode

TAF

Not found

Departure Runways

ID Width Length Bearing (true) Bearing (mag) Surface Threshold Offset Overrun Length
09 148 ft / 45 m 8,119 ft / 2,475 m 96.01° 91.61° Asphalt 0 ft / 0 m 99 ft / 30 m
27 148 ft / 45 m 8,119 ft / 2,475 m 276.03° 271.63° Asphalt 0 ft / 0 m 110 ft / 34 m

LDSP

Details ICAO LDSP (SPU)
Name SPLIT
Region Croatia
Timezone Europe/Zagreb (UTC+2.0)
Stats Elevation 79 ft / 24 m (AMSL)
Location 43.539026° 16.298112°
Runways 1
Magnetic Variation 3.885° E

METAR

LDSP 271530Z 23004KT CAVOK 27/16 Q1016 NOSIG

Decode

TAF

TAF LDSP 271125Z 2712/2812 23008KT 9999 FEW050 TX29/2712Z TN20/2804Z TEMPO 2712/2715 23010KT PROB40 TEMPO 2713/2715 FEW035CB FEW040TCU BECMG 2717/2719 28005KT BECMG 2810/2812 23008KT

Decode

Destination Runways

ID Width Length Bearing (true) Bearing (mag) Surface Threshold Offset Overrun Length
05 148 ft / 45 m 8,357 ft / 2,547 m 52.48° 48.59° Asphalt 0 ft / 0 m 76 ft / 23 m
23 148 ft / 45 m 8,357 ft / 2,547 m 232.50° 228.61° Asphalt 525 ft / 160 m 820 ft / 250 m

Approach Navaids

Runway Type Ident Frequency Range Bearing (true) Bearing (mag) Slope Elevation
05 Localiser IST 110.50 MHz 25 nm / 46 km 52.57° 48.68° - 69 ft / 21 m (AMSL)
05 Glidescope IST 110.50 MHz 25 nm / 46 km 52.57° 48.68° 3.00° 52 ft / 16 m (AMSL)